KLM609 EHAM-KSLC
Flight info
| Callsign | KLM609 |
|---|---|
| Flight time | N/A |
| Altitude | 36000 |
| Route | BERGI4E BERGI M90 LONAM DCT VENAS DCT ASKAM DCT BEREP DCT GUNPA/M081F360 DCT 67N010W/M082F380 70N020W 72N040W 72N060W DCT INGUM/N0471F380 DCT 7130N07000W 70N080W/N0481F400 67N090W 6130N10000W DCT YVC DCT TAGOT Q838 ITREK DCT KU12Q DCT KU87O DCT DBS CARTR1 |
| Aircraft | B772/H-SDE2E3FGHIJ5LORVWXY/LB1D1 |
Departure
| Time | 2026-04-18 05:51 |
|---|---|
| Airport | Amsterdam Airport Schiphol (EHAM) |
Arrival
| Time | N/A |
|---|---|
| Airport | Salt Lake City International Airport (KSLC) |
| Time | Latitude | Longitude | Altitude | Speed | Heading |
|---|---|---|---|---|---|
| 2026-04-18 05:19 | 52.31283 | 4.76929 | 4 ft | 0 kts | 304° |
| 2026-04-18 05:41 | 52.31278 | 4.76940 | 3 ft | 4 kts | 302° |
| 2026-04-18 05:41 | 52.31265 | 4.76978 | 3 ft | 4 kts | 292° |
| 2026-04-18 05:41 | 52.31258 | 4.77020 | 3 ft | 4 kts | 272° |
| 2026-04-18 05:42 | 52.31262 | 4.77059 | 3 ft | 4 kts | 226° |
| 2026-04-18 05:42 | 52.31267 | 4.77067 | 3 ft | 0 kts | 213° |
| 2026-04-18 05:44 | 52.31266 | 4.77066 | 3 ft | 2 kts | 213° |
| 2026-04-18 05:45 | 52.31230 | 4.77029 | 3 ft | 7 kts | 212° |
| 2026-04-18 05:45 | 52.31191 | 4.76987 | 3 ft | 7 kts | 213° |
| 2026-04-18 05:45 | 52.31145 | 4.76945 | 3 ft | 10 kts | 197° |
| 2026-04-18 05:45 | 52.31084 | 4.77011 | 3 ft | 15 kts | 93° |
| 2026-04-18 05:46 | 52.31076 | 4.77191 | 3 ft | 16 kts | 94° |
| 2026-04-18 05:46 | 52.31070 | 4.77369 | 3 ft | 16 kts | 92° |
| 2026-04-18 05:46 | 52.31035 | 4.77537 | 4 ft | 16 kts | 126° |
| 2026-04-18 05:46 | 52.30943 | 4.77616 | 3 ft | 16 kts | 182° |
| 2026-04-18 05:47 | 52.30832 | 4.77604 | 3 ft | 16 kts | 184° |
| 2026-04-18 05:47 | 52.30722 | 4.77590 | 3 ft | 16 kts | 184° |
| 2026-04-18 05:47 | 52.30613 | 4.77565 | 3 ft | 16 kts | 206° |
| 2026-04-18 05:47 | 52.30526 | 4.77580 | 4 ft | 0 kts | 152° |
| 2026-04-18 05:49 | 52.30522 | 4.77583 | 3 ft | 4 kts | 152° |
| 2026-04-18 05:49 | 52.30486 | 4.77615 | 4 ft | 6 kts | 152° |
| 2026-04-18 05:49 | 52.30448 | 4.77647 | 4 ft | 6 kts | 153° |
| 2026-04-18 05:50 | 52.30420 | 4.77643 | 5 ft | 4 kts | 234° |
| 2026-04-18 05:50 | 52.30406 | 4.77610 | 3 ft | 11 kts | 236° |
| 2026-04-18 05:50 | 52.30302 | 4.77346 | 1 ft | 53 kts | 238° |
| 2026-04-18 05:50 | 52.29972 | 4.76490 | 2 ft | 121 kts | 238° |
| 2026-04-18 05:51 | 52.29415 | 4.75061 | 11 ft | 174 kts | 237° |
| 2026-04-18 05:51 | 52.28757 | 4.73375 | 594 ft | 173 kts | 237° |
| 2026-04-18 05:51 | 52.28093 | 4.71662 | 1306 ft | 182 kts | 237° |
| 2026-04-18 05:51 | 52.27418 | 4.69873 | 1939 ft | 186 kts | 234° |
| 2026-04-18 05:52 | 52.26512 | 4.68209 | 2154 ft | 206 kts | 224° |
| 2026-04-18 05:52 | 52.25412 | 4.66506 | 2323 ft | 229 kts | 224° |
| 2026-04-18 05:52 | 52.24259 | 4.64621 | 2533 ft | 240 kts | 236° |
| 2026-04-18 05:52 | 52.23638 | 4.62071 | 2903 ft | 246 kts | 256° |
| 2026-04-18 05:53 | 52.23193 | 4.59353 | 3390 ft | 249 kts | 257° |
| 2026-04-18 05:53 | 52.23059 | 4.57498 | 3683 ft | 252 kts | 274° |
| 2026-04-18 05:53 | 52.23651 | 4.54815 | 4261 ft | 257 kts | 304° |
| 2026-04-18 05:53 | 52.25473 | 4.52258 | 5104 ft | 263 kts | 326° |
| 2026-04-18 05:54 | 52.26515 | 4.51237 | 5492 ft | 265 kts | 326° |
| 2026-04-18 05:54 | 52.28111 | 4.49687 | 6068 ft | 268 kts | 326° |
| 2026-04-18 05:54 | 52.29717 | 4.48115 | 6689 ft | 270 kts | 326° |
| 2026-04-18 05:54 | 52.31330 | 4.46522 | 7188 ft | 272 kts | 326° |
| 2026-04-18 05:55 | 52.32957 | 4.44911 | 7619 ft | 274 kts | 326° |
| 2026-04-18 05:55 | 52.34593 | 4.43283 | 8040 ft | 276 kts | 325° |
| 2026-04-18 05:55 | 52.36330 | 4.41918 | 8286 ft | 283 kts | 345° |
| 2026-04-18 05:55 | 52.38304 | 4.41562 | 8500 ft | 288 kts | 353° |
| 2026-04-18 05:56 | 52.40315 | 4.41316 | 8919 ft | 289 kts | 352° |
| 2026-04-18 05:56 | 52.42322 | 4.41030 | 9332 ft | 291 kts | 352° |
| 2026-04-18 05:56 | 52.44349 | 4.40726 | 9711 ft | 294 kts | 352° |
| 2026-04-18 05:56 | 52.46388 | 4.40412 | 10123 ft | 295 kts | 351° |
| 2026-04-18 05:57 | 52.50593 | 4.39761 | 10440 ft | 316 kts | 352° |
| 2026-04-18 05:57 | 52.52824 | 4.39408 | 10529 ft | 327 kts | 352° |
| 2026-04-18 05:57 | 52.55129 | 4.39044 | 10704 ft | 339 kts | 351° |
| 2026-04-18 05:58 | 52.57509 | 4.38661 | 11047 ft | 347 kts | 352° |
| 2026-04-18 05:58 | 52.59922 | 4.38271 | 11560 ft | 350 kts | 351° |
| 2026-04-18 05:58 | 52.62359 | 4.37892 | 12115 ft | 353 kts | 351° |
| 2026-04-18 05:58 | 52.64818 | 4.37525 | 12703 ft | 357 kts | 352° |
| 2026-04-18 05:59 | 52.67305 | 4.37126 | 13241 ft | 362 kts | 351° |
| 2026-04-18 05:59 | 52.69829 | 4.36705 | 13774 ft | 366 kts | 351° |
| 2026-04-18 05:59 | 52.72373 | 4.36299 | 14350 ft | 369 kts | 351° |
| 2026-04-18 05:59 | 52.74938 | 4.35887 | 14885 ft | 372 kts | 350° |
| 2026-04-18 06:00 | 52.77496 | 4.35214 | 15392 ft | 374 kts | 344° |
| 2026-04-18 06:00 | 52.80039 | 4.34245 | 15933 ft | 376 kts | 342° |
| 2026-04-18 06:00 | 52.82588 | 4.33195 | 16478 ft | 378 kts | 342° |
| 2026-04-18 06:00 | 52.85153 | 4.32151 | 16998 ft | 382 kts | 342° |
| 2026-04-18 06:01 | 52.87748 | 4.31122 | 17513 ft | 385 kts | 342° |
| 2026-04-18 06:01 | 52.90366 | 4.30110 | 17990 ft | 388 kts | 342° |
| 2026-04-18 06:01 | 52.92970 | 4.29116 | 18445 ft | 391 kts | 342° |
| 2026-04-18 06:01 | 52.95664 | 4.28095 | 18878 ft | 394 kts | 342° |
| 2026-04-18 06:02 | 52.98350 | 4.27084 | 19301 ft | 397 kts | 342° |
| 2026-04-18 06:02 | 53.01021 | 4.26080 | 19739 ft | 400 kts | 342° |
| 2026-04-18 06:02 | 53.03739 | 4.25048 | 20194 ft | 402 kts | 342° |
| 2026-04-18 06:02 | 53.06474 | 4.24012 | 20609 ft | 405 kts | 342° |
| 2026-04-18 06:03 | 53.09228 | 4.22976 | 20989 ft | 408 kts | 342° |
| 2026-04-18 06:03 | 53.12005 | 4.21928 | 21374 ft | 411 kts | 342° |
| 2026-04-18 06:03 | 53.14805 | 4.20874 | 21763 ft | 413 kts | 342° |
| 2026-04-18 06:03 | 53.17611 | 4.19813 | 22145 ft | 415 kts | 342° |
| 2026-04-18 06:04 | 53.20444 | 4.18739 | 22499 ft | 419 kts | 342° |
| 2026-04-18 06:04 | 53.23299 | 4.17667 | 22878 ft | 421 kts | 341° |
| 2026-04-18 06:04 | 53.26155 | 4.16578 | 23222 ft | 423 kts | 341° |
| 2026-04-18 06:04 | 53.29032 | 4.15478 | 23530 ft | 425 kts | 342° |
| 2026-04-18 06:05 | 53.31926 | 4.14387 | 23832 ft | 428 kts | 341° |
| 2026-04-18 06:05 | 53.34840 | 4.13272 | 24116 ft | 431 kts | 341° |
| 2026-04-18 06:05 | 53.37774 | 4.12152 | 24457 ft | 433 kts | 341° |
| 2026-04-18 06:05 | 53.40721 | 4.11031 | 24790 ft | 436 kts | 341° |
| 2026-04-18 06:06 | 53.43684 | 4.09897 | 25100 ft | 439 kts | 341° |
| 2026-04-18 06:06 | 53.46669 | 4.08755 | 25403 ft | 441 kts | 341° |
| 2026-04-18 06:06 | 53.49667 | 4.07597 | 25698 ft | 444 kts | 341° |
| 2026-04-18 06:06 | 53.52689 | 4.06439 | 26018 ft | 446 kts | 341° |
| 2026-04-18 06:07 | 53.55723 | 4.05274 | 26309 ft | 449 kts | 341° |
| 2026-04-18 06:07 | 53.58779 | 4.04093 | 26597 ft | 451 kts | 341° |
| 2026-04-18 06:07 | 53.61847 | 4.02907 | 26883 ft | 454 kts | 341° |
| 2026-04-18 06:07 | 53.64940 | 4.01721 | 27185 ft | 456 kts | 341° |
| 2026-04-18 06:08 | 53.68039 | 4.00524 | 27458 ft | 458 kts | 341° |
| 2026-04-18 06:08 | 53.71150 | 3.99309 | 27730 ft | 461 kts | 341° |
| 2026-04-18 06:08 | 53.74288 | 3.98082 | 27963 ft | 464 kts | 341° |
| 2026-04-18 06:08 | 53.77444 | 3.96853 | 28237 ft | 467 kts | 340° |
| 2026-04-18 06:09 | 53.80615 | 3.95616 | 28543 ft | 468 kts | 341° |
| 2026-04-18 06:09 | 53.83749 | 3.94366 | 28822 ft | 468 kts | 339° |
| 2026-04-18 06:09 | 53.86842 | 3.92707 | 29066 ft | 466 kts | 333° |
| 2026-04-18 06:09 | 53.89890 | 3.90802 | 29330 ft | 467 kts | 333° |
| 2026-04-18 06:10 | 53.92940 | 3.88854 | 29604 ft | 469 kts | 332° |
| 2026-04-18 06:10 | 53.96001 | 3.86910 | 29859 ft | 471 kts | 333° |
| 2026-04-18 06:10 | 53.99083 | 3.84965 | 30076 ft | 474 kts | 333° |
| 2026-04-18 06:10 | 54.02175 | 3.83028 | 30297 ft | 475 kts | 333° |
| 2026-04-18 06:11 | 54.05287 | 3.81082 | 30504 ft | 477 kts | 333° |
| 2026-04-18 06:11 | 54.08408 | 3.79136 | 30752 ft | 479 kts | 333° |
| 2026-04-18 06:11 | 54.11539 | 3.77178 | 31023 ft | 479 kts | 333° |
| 2026-04-18 06:11 | 54.14675 | 3.75221 | 31283 ft | 481 kts | 333° |
| 2026-04-18 06:12 | 54.17820 | 3.73250 | 31515 ft | 482 kts | 333° |
| 2026-04-18 06:12 | 54.20975 | 3.71269 | 31701 ft | 485 kts | 333° |
| 2026-04-18 06:12 | 54.24143 | 3.69272 | 31898 ft | 486 kts | 333° |
| 2026-04-18 06:12 | 54.27326 | 3.67270 | 32115 ft | 488 kts | 333° |
| 2026-04-18 06:13 | 54.30521 | 3.65279 | 32322 ft | 489 kts | 332° |
| 2026-04-18 06:13 | 54.33713 | 3.63252 | 32529 ft | 490 kts | 332° |
| 2026-04-18 06:13 | 54.36915 | 3.61211 | 32691 ft | 491 kts | 332° |
| 2026-04-18 06:13 | 54.40132 | 3.59174 | 32858 ft | 494 kts | 333° |